createdAt,value
2019-02-21T00:01:28.191Z,5.21
2019-02-21T00:03:58.135Z,5.17
2019-02-21T00:06:28.066Z,5.28
2019-02-21T00:08:57.981Z,5.28
2019-02-21T00:11:27.980Z,5.31
2019-02-21T00:13:58.005Z,5.36
2019-02-21T00:16:27.947Z,5.32
2019-02-21T00:18:57.799Z,5.34
2019-02-21T00:21:27.755Z,5.35
2019-02-21T00:23:57.826Z,5.42
2019-02-21T00:26:27.862Z,5.46
2019-02-21T00:28:57.710Z,5.47
2019-02-21T00:31:27.586Z,5.49
2019-02-21T00:33:57.493Z,5.52
2019-02-21T00:36:27.382Z,5.53
2019-02-21T00:38:57.303Z,5.53
2019-02-21T00:41:27.178Z,5.52
2019-02-21T00:43:57.014Z,5.57
2019-02-21T00:46:26.979Z,5.56
2019-02-21T00:48:56.846Z,5.47
2019-02-21T00:51:26.817Z,5.51
2019-02-21T00:53:56.785Z,5.56
2019-02-21T00:56:26.715Z,5.69
2019-02-21T00:58:56.626Z,5.65
2019-02-21T01:01:26.456Z,5.69
2019-02-21T01:03:56.452Z,5.62
2019-02-21T01:06:26.367Z,5.63
2019-02-21T01:08:56.395Z,5.57
2019-02-21T01:11:26.342Z,5.56
2019-02-21T01:13:56.296Z,5.56
2019-02-21T01:16:26.150Z,5.48
2019-02-21T01:18:56.224Z,5.53
2019-02-21T01:21:26.130Z,5.55
2019-02-21T01:23:56.134Z,5.48
2019-02-21T01:26:25.986Z,5.52
2019-02-21T01:28:55.866Z,5.52
2019-02-21T01:31:25.751Z,5.47
2019-02-21T01:33:55.714Z,5.41
2019-02-21T01:36:25.585Z,5.39
2019-02-21T01:38:55.464Z,5.41
2019-02-21T01:41:25.398Z,5.40
2019-02-21T01:43:55.353Z,5.43
2019-02-21T01:46:26.267Z,5.42
2019-02-21T01:48:56.111Z,5.38
2019-02-21T01:51:25.994Z,5.51
2019-02-21T01:53:56.012Z,5.47
2019-02-21T01:56:25.977Z,5.52
2019-02-21T01:58:55.885Z,5.51
2019-02-21T02:01:25.862Z,5.51
2019-02-21T02:03:55.968Z,5.47
2019-02-21T02:06:27.012Z,5.41
2019-02-21T02:08:56.875Z,5.40
2019-02-21T02:11:26.747Z,5.43
2019-02-21T02:13:56.623Z,5.35
2019-02-21T02:16:26.575Z,5.30
2019-02-21T02:18:56.556Z,5.22
2019-02-21T02:21:26.554Z,5.21
2019-02-21T02:23:56.580Z,5.22
2019-02-21T02:26:26.548Z,5.23
2019-02-21T02:28:56.523Z,5.17
2019-02-21T02:31:26.394Z,5.05
2019-02-21T02:33:56.420Z,4.96
2019-02-21T02:36:26.455Z,4.93
2019-02-21T02:38:56.311Z,4.84
2019-02-21T02:41:26.203Z,4.84
2019-02-21T02:43:56.043Z,4.84
2019-02-21T02:46:26.041Z,4.79
2019-02-21T02:48:56.028Z,4.78
2019-02-21T02:51:25.991Z,4.85
2019-02-21T02:53:55.838Z,4.79
2019-02-21T02:56:25.832Z,4.77
2019-02-21T02:58:55.908Z,4.79
2019-02-21T03:01:34.358Z,4.78
2019-02-21T03:03:57.555Z,4.77
2019-02-21T03:06:27.618Z,4.73
2019-02-21T03:08:57.604Z,4.77
2019-02-21T03:11:27.570Z,4.79
2019-02-21T03:13:57.543Z,4.70
2019-02-21T03:16:27.744Z,4.66
2019-02-21T03:18:57.647Z,4.66
2019-02-21T03:21:27.532Z,4.66
2019-02-21T03:23:57.402Z,4.61
2019-02-21T03:26:27.326Z,4.53
2019-02-21T03:28:57.340Z,4.55
2019-02-21T03:31:27.157Z,4.56
2019-02-21T03:33:57.142Z,4.60
2019-02-21T03:36:27.102Z,4.60
2019-02-21T03:38:57.054Z,4.59
2019-02-21T03:41:27.031Z,4.61
2019-02-21T03:43:56.935Z,4.66
2019-02-21T03:46:26.798Z,4.67
2019-02-21T03:48:56.747Z,4.59
2019-02-21T03:51:26.615Z,4.61
2019-02-21T03:53:56.458Z,4.61
2019-02-21T03:56:26.521Z,4.54
2019-02-21T03:58:56.489Z,4.46
2019-02-21T04:01:26.800Z,4.41
2019-02-21T04:03:56.796Z,4.35
2019-02-21T04:06:26.825Z,4.34
2019-02-21T04:08:56.855Z,4.33
2019-02-21T04:11:26.882Z,4.32
2019-02-21T04:13:56.814Z,4.32
2019-02-21T04:16:26.706Z,4.31
2019-02-21T04:18:56.671Z,4.30
2019-02-21T04:21:26.634Z,4.24
2019-02-21T04:23:56.541Z,4.24
2019-02-21T04:26:26.439Z,4.14
2019-02-21T04:28:56.485Z,4.13
2019-02-21T04:31:26.404Z,4.13
2019-02-21T04:33:57.393Z,4.14
2019-02-21T04:36:27.365Z,4.15
2019-02-21T04:38:57.221Z,4.17
2019-02-21T04:41:27.164Z,4.11
2019-02-21T04:43:57.047Z,4.10
2019-02-21T04:46:26.955Z,4.12
2019-02-21T04:48:56.800Z,4.20
2019-02-21T04:51:26.826Z,4.10
2019-02-21T04:53:56.776Z,4.14
2019-02-21T04:56:26.765Z,4.14
2019-02-21T04:58:56.744Z,4.07
2019-02-21T05:01:26.594Z,4.07
2019-02-21T05:03:56.641Z,4.05
2019-02-21T05:06:26.530Z,4.12
2019-02-21T05:08:56.486Z,4.14
2019-02-21T05:11:26.319Z,4.18
2019-02-21T05:13:56.295Z,4.14
2019-02-21T05:16:26.209Z,4.14
2019-02-21T05:18:56.220Z,4.05
2019-02-21T05:21:26.182Z,4.02
2019-02-21T05:23:56.105Z,4.00
2019-02-21T05:26:33.472Z,3.99
2019-02-21T05:29:04.485Z,3.89
2019-02-21T05:31:45.069Z,3.85
2019-02-21T05:34:33.983Z,3.87
2019-02-21T05:37:23.155Z,3.83
2019-02-21T05:40:18.309Z,3.88
2019-02-21T05:43:07.418Z,3.89
2019-02-21T05:45:43.021Z,3.93
2019-02-21T05:48:31.953Z,3.87
2019-02-21T05:51:16.639Z,3.80
2019-02-21T05:53:57.437Z,3.83
2019-02-21T05:56:42.962Z,3.80
2019-02-21T05:59:27.331Z,3.74
2019-02-21T06:02:19.160Z,3.78
2019-02-21T06:05:04.174Z,3.82
2019-02-21T06:07:59.032Z,3.86
2019-02-21T06:10:56.882Z,3.83
2019-02-21T06:13:57.868Z,3.83
2019-02-21T06:16:39.581Z,3.88
2019-02-21T06:19:17.730Z,3.89
2019-02-21T06:21:53.456Z,3.97
2019-02-21T06:24:31.581Z,3.92
2019-02-21T06:27:06.158Z,3.93
2019-02-21T06:29:44.514Z,3.97
2019-02-21T06:32:14.775Z,4.14
2019-02-21T06:34:44.778Z,4.14
2019-02-21T06:37:15.831Z,4.10
2019-02-21T06:39:45.732Z,4.11
2019-02-21T06:42:15.616Z,4.16
2019-02-21T06:44:45.623Z,4.18
2019-02-21T06:47:15.494Z,4.21
2019-02-21T06:49:45.365Z,4.36
2019-02-21T06:52:15.753Z,4.39
2019-02-21T06:54:45.880Z,4.45
2019-02-21T06:57:15.814Z,4.58
2019-02-21T06:59:45.699Z,4.60
2019-02-21T07:02:15.679Z,4.65
2019-02-21T07:04:45.694Z,4.85
2019-02-21T07:07:15.552Z,4.91
2019-02-21T07:09:45.464Z,4.81
2019-02-21T07:12:15.425Z,4.82
2019-02-21T07:14:45.529Z,4.92
2019-02-21T07:17:15.499Z,5.01
2019-02-21T07:19:45.456Z,5.08
2019-02-21T07:22:18.106Z,5.15
2019-02-21T07:24:49.193Z,5.41
2019-02-21T07:27:19.161Z,5.67
2019-02-21T07:29:49.015Z,5.74
2019-02-21T07:32:18.900Z,5.88
2019-02-21T07:34:48.894Z,6.00
2019-02-21T07:37:19.241Z,6.05
2019-02-21T07:39:50.904Z,6.17
2019-02-21T07:42:20.910Z,6.39
2019-02-21T07:44:50.944Z,6.45
2019-02-21T07:47:20.923Z,7.90
2019-02-21T07:49:50.783Z,8.17
2019-02-21T07:52:20.696Z,8.27
2019-02-21T07:55:01.024Z,8.37
2019-02-21T07:57:22.995Z,8.80
2019-02-21T07:59:52.851Z,8.59
2019-02-21T08:02:22.892Z,8.62
2019-02-21T08:04:52.823Z,8.32
2019-02-21T08:07:22.960Z,8.51
2019-02-21T08:09:52.995Z,8.85
2019-02-21T08:12:23.345Z,8.95
2019-02-21T08:14:56.311Z,9.46
2019-02-21T08:17:27.992Z,9.33
2019-02-21T08:20:07.835Z,9.24
2019-02-21T08:22:29.303Z,9.43
2019-02-21T08:24:59.201Z,9.24
2019-02-21T08:27:29.118Z,9.75
2019-02-21T08:29:59.137Z,9.69
2019-02-21T08:32:37.254Z,9.41
2019-02-21T08:35:07.285Z,9.47
2019-02-21T08:37:37.222Z,9.53
2019-02-21T08:40:07.207Z,9.38
2019-02-21T08:42:37.096Z,9.38
2019-02-21T08:45:07.238Z,9.32
2019-02-21T08:47:37.153Z,9.52
2019-02-21T08:50:07.218Z,9.67
2019-02-21T08:52:37.122Z,9.74
2019-02-21T08:55:07.104Z,9.79
2019-02-21T08:57:37.061Z,9.76
2019-02-21T09:00:10.797Z,9.69
2019-02-21T09:02:39.801Z,9.31
2019-02-21T09:05:10.574Z,9.45
2019-02-21T09:07:41.712Z,9.79
2019-02-21T09:10:12.331Z,9.51
2019-02-21T09:12:47.130Z,9.51
2019-02-21T09:15:15.767Z,9.48
2019-02-21T09:17:45.697Z,9.27
2019-02-21T09:20:15.734Z,9.77
2019-02-21T09:22:45.697Z,10.35
2019-02-21T09:25:15.836Z,10.19
2019-02-21T09:27:45.706Z,10.74
2019-02-21T09:30:17.252Z,10.75
2019-02-21T09:32:47.429Z,10.41
2019-02-21T09:35:17.393Z,10.59
2019-02-21T09:37:47.340Z,10.54
2019-02-21T09:40:17.405Z,10.44
2019-02-21T09:42:47.435Z,10.61
2019-02-21T09:45:17.971Z,11.19
2019-02-21T09:47:47.941Z,11.03
2019-02-21T09:50:17.878Z,10.63
2019-02-21T09:52:47.856Z,10.67
2019-02-21T09:55:18.164Z,10.53
2019-02-21T09:57:48.121Z,10.72
2019-02-21T10:00:19.639Z,10.77
2019-02-21T10:02:49.627Z,10.83
2019-02-21T10:05:19.549Z,10.86
2019-02-21T10:07:49.490Z,11.06
2019-02-21T10:10:20.584Z,11.07
2019-02-21T10:12:50.454Z,11.11
2019-02-21T10:15:20.449Z,11.19
2019-02-21T10:17:50.970Z,10.98
2019-02-21T10:20:21.471Z,11.36
2019-02-21T10:22:51.503Z,11.43
2019-02-21T10:25:23.705Z,11.49
2019-02-21T10:27:53.722Z,11.88
2019-02-21T10:30:23.887Z,12.25
2019-02-21T10:32:53.859Z,12.33
2019-02-21T10:35:23.854Z,12.85
2019-02-21T10:37:53.878Z,13.14
2019-02-21T10:40:23.871Z,12.80
2019-02-21T10:42:53.907Z,12.56
2019-02-21T10:45:24.006Z,12.55
2019-02-21T10:47:54.033Z,12.45
2019-02-21T10:50:24.146Z,12.13
2019-02-21T10:52:54.182Z,12.04
2019-02-21T10:55:24.094Z,12.05
2019-02-21T10:57:54.058Z,11.86
2019-02-21T11:00:26.415Z,11.97
2019-02-21T11:02:57.753Z,11.89
2019-02-21T11:05:27.746Z,12.12
2019-02-21T11:07:57.707Z,12.11
2019-02-21T11:10:28.488Z,11.90
2019-02-21T11:12:59.480Z,11.87
2019-02-21T11:15:29.498Z,11.96
2019-02-21T11:17:59.387Z,11.82
2019-02-21T11:20:29.326Z,11.52
2019-02-21T11:22:59.163Z,11.69
2019-02-21T11:25:29.141Z,11.87
2019-02-21T11:27:58.955Z,11.83
2019-02-21T11:30:28.906Z,11.74
2019-02-21T11:32:58.747Z,11.68
2019-02-21T11:35:28.636Z,11.67
2019-02-21T11:37:58.486Z,11.76
2019-02-21T11:40:28.483Z,11.63
2019-02-21T11:42:58.373Z,11.79
2019-02-21T11:45:28.321Z,12.01
2019-02-21T11:47:58.274Z,12.18
2019-02-21T11:50:28.262Z,12.06
2019-02-21T11:52:58.124Z,12.08
2019-02-21T11:55:28.055Z,12.28
2019-02-21T11:57:58.117Z,12.62
2019-02-21T12:00:28.617Z,12.63
2019-02-21T12:02:58.660Z,13.10
2019-02-21T12:05:31.323Z,13.15
2019-02-21T12:08:00.233Z,13.17
2019-02-21T12:10:30.182Z,13.43
2019-02-21T12:13:00.240Z,13.44
2019-02-21T12:15:31.249Z,13.24
2019-02-21T12:18:01.205Z,12.79
2019-02-21T12:20:32.099Z,12.75
2019-02-21T12:23:01.999Z,12.54
2019-02-21T12:25:32.099Z,12.83
2019-02-21T12:28:02.001Z,12.89
2019-02-21T12:30:33.438Z,13.02
2019-02-21T12:33:03.727Z,13.02
2019-02-21T12:35:33.713Z,12.90
2019-02-21T12:38:03.677Z,13.38
2019-02-21T12:40:33.568Z,13.05
2019-02-21T12:43:03.526Z,12.93
2019-02-21T12:45:33.483Z,13.22
2019-02-21T12:48:03.441Z,13.39
2019-02-21T12:50:43.691Z,13.40
2019-02-21T12:53:05.114Z,13.08
2019-02-21T12:55:34.968Z,12.76
2019-02-21T12:58:04.966Z,13.12
2019-02-21T13:00:36.670Z,13.23
2019-02-21T13:03:06.657Z,12.86
2019-02-21T13:05:40.990Z,12.73
2019-02-21T13:08:08.173Z,12.70
2019-02-21T13:10:38.017Z,13.38
2019-02-21T13:13:07.986Z,13.24
2019-02-21T13:15:37.994Z,13.23
2019-02-21T13:18:15.477Z,13.43
2019-02-21T13:20:39.771Z,13.67
2019-02-21T13:23:09.681Z,13.53
2019-02-21T13:25:41.254Z,13.44
2019-02-21T13:28:11.229Z,13.37
2019-02-21T13:30:41.180Z,13.17
2019-02-21T13:33:11.043Z,13.19
2019-02-21T13:35:51.858Z,13.41
2019-02-21T13:38:12.639Z,13.63
2019-02-21T13:40:42.547Z,13.86
2019-02-21T13:43:12.530Z,13.78
2019-02-21T13:45:42.512Z,13.71
2019-02-21T13:48:12.437Z,13.80
2019-02-21T13:50:42.305Z,13.45
2019-02-21T13:53:12.339Z,13.54
2019-02-21T13:55:42.311Z,13.68
2019-02-21T13:58:12.309Z,13.55
2019-02-21T14:00:42.286Z,13.32
2019-02-21T14:03:12.399Z,13.40
2019-02-21T14:05:42.342Z,13.45
2019-02-21T14:08:12.259Z,13.43
2019-02-21T14:10:42.240Z,13.30
2019-02-21T14:13:12.166Z,13.27
2019-02-21T14:15:42.063Z,13.48
2019-02-21T14:18:12.163Z,13.33
2019-02-21T14:20:45.505Z,13.51
2019-02-21T14:23:13.650Z,13.45
2019-02-21T14:25:43.473Z,13.41
2019-02-21T14:28:13.429Z,13.09
2019-02-21T14:30:43.347Z,12.93
2019-02-21T14:33:13.207Z,12.90
2019-02-21T14:35:43.128Z,13.14
2019-02-21T14:38:13.081Z,13.15
2019-02-21T14:40:42.907Z,13.24
2019-02-21T14:43:16.934Z,13.21
2019-02-21T14:45:45.429Z,12.89
2019-02-21T14:48:15.328Z,12.89
2019-02-21T14:50:45.270Z,12.98
2019-02-21T14:53:15.285Z,13.18
2019-02-21T14:55:45.203Z,13.87
2019-02-21T14:58:15.201Z,14.16
2019-02-21T15:00:45.055Z,14.45
2019-02-21T15:03:21.948Z,14.37
2019-02-21T15:05:46.716Z,14.52
2019-02-21T15:08:22.021Z,14.70
2019-02-21T15:10:52.853Z,14.48
2019-02-21T15:13:25.429Z,14.46
2019-02-21T15:15:54.454Z,14.21
2019-02-21T15:18:25.351Z,14.44
2019-02-21T15:20:55.357Z,14.43
2019-02-21T15:23:25.278Z,13.76
2019-02-21T15:25:55.217Z,13.16
2019-02-21T15:28:25.090Z,13.21
2019-02-21T15:30:55.010Z,12.92
2019-02-21T15:33:24.889Z,12.91
2019-02-21T15:35:54.857Z,12.81
2019-02-21T15:38:24.846Z,12.80
2019-02-21T15:40:54.695Z,12.86
2019-02-21T15:43:24.717Z,12.66
2019-02-21T15:45:54.626Z,12.60
2019-02-21T15:48:24.603Z,12.72
2019-02-21T15:50:54.547Z,12.78
2019-02-21T15:53:24.515Z,12.79
2019-02-21T15:55:54.409Z,12.55
2019-02-21T15:58:24.402Z,12.73
2019-02-21T16:00:54.324Z,12.72
2019-02-21T16:03:24.357Z,12.63
2019-02-21T16:05:54.482Z,12.58
2019-02-21T16:08:24.357Z,12.52
2019-02-21T16:10:54.367Z,12.40
2019-02-21T16:13:24.758Z,12.30
2019-02-21T16:15:54.861Z,12.54
2019-02-21T16:18:24.812Z,12.33
2019-02-21T16:20:54.762Z,12.28
2019-02-21T16:23:24.616Z,12.28
2019-02-21T16:25:54.680Z,12.28
2019-02-21T16:28:24.599Z,12.25
2019-02-21T16:30:55.533Z,12.20
2019-02-21T16:33:25.390Z,12.21
2019-02-21T16:35:55.336Z,12.14
2019-02-21T16:38:25.280Z,11.99
2019-02-21T16:40:55.208Z,11.96
2019-02-21T16:43:26.386Z,11.87
2019-02-21T16:46:07.106Z,11.74
2019-02-21T16:48:29.033Z,11.73
2019-02-21T16:50:58.991Z,11.72
2019-02-21T16:53:29.825Z,11.70
2019-02-21T16:55:59.852Z,11.71
2019-02-21T16:58:29.750Z,11.67
2019-02-21T17:00:59.784Z,11.68
2019-02-21T17:03:29.703Z,11.83
2019-02-21T17:05:59.671Z,11.98
2019-02-21T17:08:29.577Z,11.76
2019-02-21T17:10:59.563Z,11.66
2019-02-21T17:13:29.406Z,11.79
2019-02-21T17:16:02.565Z,11.76
2019-02-21T17:18:32.426Z,11.79
2019-02-21T17:21:02.338Z,11.92
2019-02-21T17:23:32.377Z,11.86
2019-02-21T17:26:02.254Z,11.85
2019-02-21T17:28:32.204Z,11.98
2019-02-21T17:31:02.287Z,11.59
2019-02-21T17:33:32.216Z,11.32
2019-02-21T17:36:02.110Z,11.08
2019-02-21T17:38:32.020Z,11.00
2019-02-21T17:41:02.156Z,11.05
2019-02-21T17:43:32.020Z,11.26
2019-02-21T17:46:01.930Z,11.27
2019-02-21T17:48:31.957Z,11.10
2019-02-21T17:51:01.895Z,11.24
2019-02-21T17:53:31.920Z,11.40
2019-02-21T17:56:01.839Z,11.44
2019-02-21T17:58:32.722Z,11.38
2019-02-21T18:01:02.628Z,11.32
2019-02-21T18:03:33.868Z,11.29
2019-02-21T18:06:04.016Z,11.24
2019-02-21T18:08:34.019Z,11.21
2019-02-21T18:11:04.005Z,11.21
2019-02-21T18:13:33.960Z,11.21
2019-02-21T18:16:03.880Z,11.17
2019-02-21T18:18:33.836Z,11.13
2019-02-21T18:21:03.858Z,11.04
2019-02-21T18:23:33.765Z,10.96
2019-02-21T18:26:14.611Z,10.74
2019-02-21T18:28:44.660Z,10.75
2019-02-21T18:31:21.707Z,10.73
2019-02-21T18:33:51.787Z,10.75
2019-02-21T18:36:21.769Z,10.73
2019-02-21T18:38:51.732Z,10.61
2019-02-21T18:41:21.708Z,10.41
2019-02-21T18:43:51.761Z,10.49
2019-02-21T18:46:21.748Z,10.30
2019-02-21T18:48:51.780Z,10.27
2019-02-21T18:51:21.736Z,10.40
2019-02-21T18:53:51.735Z,10.44
2019-02-21T18:56:21.751Z,10.40
2019-02-21T18:58:51.809Z,10.23
2019-02-21T19:01:21.708Z,10.13
2019-02-21T19:03:51.692Z,10.16
2019-02-21T19:06:21.678Z,10.21
2019-02-21T19:08:51.707Z,10.21
2019-02-21T19:11:21.601Z,10.06
2019-02-21T19:13:51.627Z,9.95
2019-02-21T19:16:21.576Z,9.92
2019-02-21T19:18:51.536Z,10.01
2019-02-21T19:21:21.453Z,10.04
2019-02-21T19:23:51.513Z,10.17
2019-02-21T19:26:21.409Z,9.97
2019-02-21T19:28:51.441Z,9.98
2019-02-21T19:31:21.422Z,9.86
2019-02-21T19:33:51.558Z,9.91
2019-02-21T19:36:21.538Z,10.08
2019-02-21T19:38:53.651Z,10.12
2019-02-21T19:41:23.584Z,10.22
2019-02-21T19:43:53.599Z,10.51
2019-02-21T19:46:23.471Z,10.57
2019-02-21T19:48:53.534Z,10.39
2019-02-21T19:51:23.530Z,10.19
2019-02-21T19:53:53.415Z,9.92
2019-02-21T19:56:23.417Z,9.72
2019-02-21T19:58:54.606Z,9.72
2019-02-21T20:01:24.729Z,9.98
2019-02-21T20:03:54.910Z,10.25
2019-02-21T20:06:24.840Z,10.20
2019-02-21T20:08:54.879Z,10.10
2019-02-21T20:11:24.907Z,10.02
2019-02-21T20:13:54.841Z,9.91
2019-02-21T20:16:24.894Z,10.00
2019-02-21T20:18:54.808Z,10.21
2019-02-21T20:21:24.700Z,10.29
2019-02-21T20:23:54.582Z,10.10
2019-02-21T20:26:24.675Z,10.23
2019-02-21T20:28:55.263Z,10.16
2019-02-21T20:31:25.404Z,10.30
2019-02-21T20:33:55.473Z,10.35
2019-02-21T20:36:25.582Z,10.40
2019-02-21T20:38:55.410Z,10.36
2019-02-21T20:41:25.728Z,10.19
2019-02-21T20:43:55.766Z,10.29
2019-02-21T20:46:25.741Z,10.36
2019-02-21T20:48:55.733Z,10.31
2019-02-21T20:51:25.701Z,10.42
2019-02-21T20:53:55.830Z,10.20
2019-02-21T20:56:28.393Z,10.12
2019-02-21T20:59:01.488Z,9.99
2019-02-21T21:01:31.511Z,9.89
2019-02-21T21:04:01.666Z,10.19
2019-02-21T21:06:31.856Z,9.90
2019-02-21T21:09:01.738Z,9.80
2019-02-21T21:11:33.477Z,9.76
2019-02-21T21:14:03.466Z,9.72
2019-02-21T21:16:34.490Z,9.64
2019-02-21T21:19:04.409Z,9.54
2019-02-21T21:21:34.270Z,9.32
2019-02-21T21:24:04.377Z,9.21
2019-02-21T21:26:34.241Z,9.36
2019-02-21T21:29:04.207Z,9.28
2019-02-21T21:31:34.101Z,9.35
2019-02-21T21:34:03.999Z,9.33
2019-02-21T21:36:33.992Z,9.43
2019-02-21T21:39:04.413Z,9.10
2019-02-21T21:41:36.051Z,8.95
2019-02-21T21:44:06.028Z,8.89
2019-02-21T21:46:36.035Z,8.92
2019-02-21T21:49:05.944Z,9.18
2019-02-21T21:51:35.985Z,9.12
2019-02-21T21:54:05.937Z,9.22
2019-02-21T21:56:35.944Z,9.37
2019-02-21T21:59:06.934Z,9.35
2019-02-21T22:01:36.953Z,9.54
2019-02-21T22:04:06.933Z,9.42
2019-02-21T22:06:36.815Z,9.49
2019-02-21T22:09:07.104Z,9.65
2019-02-21T22:11:37.604Z,9.57
2019-02-21T22:14:07.594Z,9.44
2019-02-21T22:16:37.625Z,9.43
2019-02-21T22:19:07.903Z,9.55
2019-02-21T22:21:38.774Z,9.50
2019-02-21T22:24:08.788Z,9.17
2019-02-21T22:26:38.735Z,8.99
2019-02-21T22:29:09.073Z,9.46
2019-02-21T22:31:38.991Z,9.65
2019-02-21T22:34:09.190Z,9.79
2019-02-21T22:36:39.228Z,9.87
2019-02-21T22:39:16.269Z,9.75
2019-02-21T22:41:41.461Z,9.52
2019-02-21T22:44:12.823Z,9.56
2019-02-21T22:46:42.776Z,9.58
2019-02-21T22:49:12.825Z,9.78
2019-02-21T22:51:42.731Z,10.04
2019-02-21T22:54:12.730Z,10.35
2019-02-21T22:56:42.618Z,10.26
2019-02-21T22:59:12.703Z,10.35
2019-02-21T23:01:45.270Z,10.23
2019-02-21T23:04:49.752Z,10.19
2019-02-21T23:07:31.138Z,10.25
2019-02-21T23:10:01.398Z,10.11
2019-02-21T23:12:33.028Z,10.50
2019-02-21T23:15:03.498Z,9.87
2019-02-21T23:17:33.933Z,9.43
2019-02-21T23:20:04.187Z,9.02
2019-02-21T23:22:34.231Z,8.99
2019-02-21T23:25:04.777Z,8.95
2019-02-21T23:27:34.678Z,8.97
2019-02-21T23:30:08.899Z,8.96
2019-02-21T23:32:40.622Z,8.95
2019-02-21T23:35:15.865Z,8.99
2019-02-21T23:37:45.833Z,8.84
2019-02-21T23:40:15.751Z,8.88
2019-02-21T23:42:45.742Z,8.91
2019-02-21T23:45:15.657Z,8.87
2019-02-21T23:47:49.668Z,8.68
2019-02-21T23:50:17.153Z,8.76
2019-02-21T23:52:47.076Z,8.62
2019-02-21T23:55:16.907Z,8.72
2019-02-21T23:57:46.814Z,8.61
